sensor_id;sensor_type;location;lat;lon;timestamp;pressure;altitude;pressure_sealevel;temperature;humidity
59106;BME280;44891;50.204;8.132;2023-07-08T00:03:43;98372.44;;;16.98;61.67
59106;BME280;44891;50.204;8.132;2023-07-08T00:07:47;98370.25;;;17.05;61.23
59106;BME280;44891;50.204;8.132;2023-07-08T00:11:49;98368.16;;;17.02;61.44
59106;BME280;44891;50.204;8.132;2023-07-08T00:15:53;98362.50;;;17.14;61.25
59106;BME280;44891;50.204;8.132;2023-07-08T00:19:55;98371.59;;;17.03;61.54
59106;BME280;44891;50.204;8.132;2023-07-08T00:23:56;98361.66;;;16.84;62.54
59106;BME280;44891;50.204;8.132;2023-07-08T00:27:58;98361.84;;;16.93;62.86
59106;BME280;44891;50.204;8.132;2023-07-08T00:32:04;98359.41;;;17.02;62.21
59106;BME280;44891;50.204;8.132;2023-07-08T00:36:10;98370.25;;;17.05;61.87
59106;BME280;44891;50.204;8.132;2023-07-08T00:40:14;98367.03;;;17.08;61.94
59106;BME280;44891;50.204;8.132;2023-07-08T00:44:16;98359.38;;;17.07;62.05
59106;BME280;44891;50.204;8.132;2023-07-08T00:48:23;98365.25;;;17.04;61.87
59106;BME280;44891;50.204;8.132;2023-07-08T00:52:25;98364.22;;;16.95;62.52
59106;BME280;44891;50.204;8.132;2023-07-08T00:56:28;98367.16;;;16.93;62.82
59106;BME280;44891;50.204;8.132;2023-07-08T01:00:31;98356.84;;;16.87;62.94
59106;BME280;44891;50.204;8.132;2023-07-08T01:04:37;98365.34;;;16.24;65.09
59106;BME280;44891;50.204;8.132;2023-07-08T01:08:43;98368.94;;;16.53;64.74
59106;BME280;44891;50.204;8.132;2023-07-08T01:12:46;98369.19;;;16.57;65.11
59106;BME280;44891;50.204;8.132;2023-07-08T01:16:49;98368.06;;;16.78;64.45
59106;BME280;44891;50.204;8.132;2023-07-08T01:20:54;98367.97;;;16.89;63.76
59106;BME280;44891;50.204;8.132;2023-07-08T01:24:58;98369.59;;;16.84;63.78
59106;BME280;44891;50.204;8.132;2023-07-08T01:29:05;98362.53;;;16.65;64.93
59106;BME280;44891;50.204;8.132;2023-07-08T01:33:12;98358.13;;;16.45;65.27
59106;BME280;44891;50.204;8.132;2023-07-08T01:37:16;98357.47;;;16.73;64.49
59106;BME280;44891;50.204;8.132;2023-07-08T01:41:19;98353.72;;;16.79;64.60
59106;BME280;44891;50.204;8.132;2023-07-08T01:45:22;98356.97;;;16.71;65.27
59106;BME280;44891;50.204;8.132;2023-07-08T01:49:24;98348.63;;;16.83;64.79
59106;BME280;44891;50.204;8.132;2023-07-08T01:53:28;98350.69;;;16.96;64.35
59106;BME280;44891;50.204;8.132;2023-07-08T01:57:32;98350.75;;;16.86;64.78
59106;BME280;44891;50.204;8.132;2023-07-08T02:01:34;98348.44;;;16.74;65.41
59106;BME280;44891;50.204;8.132;2023-07-08T02:05:36;98351.06;;;16.79;65.16
59106;BME280;44891;50.204;8.132;2023-07-08T02:09:37;98348.63;;;16.83;64.97
59106;BME280;44891;50.204;8.132;2023-07-08T02:13:40;98354.25;;;16.76;65.67
59106;BME280;44891;50.204;8.132;2023-07-08T02:17:43;98351.66;;;16.71;65.80
59106;BME280;44891;50.204;8.132;2023-07-08T02:21:45;98353.22;;;16.77;65.71
59106;BME280;44891;50.204;8.132;2023-07-08T02:25:50;98339.19;;;16.67;65.75
59106;BME280;44891;50.204;8.132;2023-07-08T02:29:53;98330.56;;;16.90;64.43
59106;BME280;44891;50.204;8.132;2023-07-08T02:33:55;98317.88;;;16.82;64.68
59106;BME280;44891;50.204;8.132;2023-07-08T02:37:57;98317.84;;;16.87;65.27
59106;BME280;44891;50.204;8.132;2023-07-08T02:41:59;98317.28;;;16.90;64.07
59106;BME280;44891;50.204;8.132;2023-07-08T02:46:03;98310.09;;;16.96;63.53
59106;BME280;44891;50.204;8.132;2023-07-08T02:50:05;98320.47;;;16.92;63.67
59106;BME280;44891;50.204;8.132;2023-07-08T02:54:07;98322.88;;;16.89;64.05
59106;BME280;44891;50.204;8.132;2023-07-08T02:58:09;98326.06;;;16.91;64.35
59106;BME280;44891;50.204;8.132;2023-07-08T03:02:12;98328.75;;;16.85;64.91
59106;BME280;44891;50.204;8.132;2023-07-08T03:06:14;98325.56;;;16.83;65.50
59106;BME280;44891;50.204;8.132;2023-07-08T03:10:16;98336.47;;;16.77;65.75
59106;BME280;44891;50.204;8.132;2023-07-08T03:14:18;98337.31;;;16.72;65.52
59106;BME280;44891;50.204;8.132;2023-07-08T03:18:21;98339.88;;;16.88;65.25
59106;BME280;44891;50.204;8.132;2023-07-08T03:22:27;98350.25;;;16.84;65.35
59106;BME280;44891;50.204;8.132;2023-07-08T03:26:28;98354.53;;;16.75;65.89
59106;BME280;44891;50.204;8.132;2023-07-08T03:30:30;98345.28;;;16.72;66.44
59106;BME280;44891;50.204;8.132;2023-07-08T03:34:33;98367.09;;;16.54;67.24
59106;BME280;44891;50.204;8.132;2023-07-08T03:38:35;98373.66;;;16.67;67.12
59106;BME280;44891;50.204;8.132;2023-07-08T03:42:37;98374.94;;;16.69;67.13
59106;BME280;44891;50.204;8.132;2023-07-08T03:46:40;98377.88;;;16.78;66.89
59106;BME280;44891;50.204;8.132;2023-07-08T03:50:45;98378.41;;;16.75;67.14
59106;BME280;44891;50.204;8.132;2023-07-08T03:54:47;98384.53;;;16.70;67.43
59106;BME280;44891;50.204;8.132;2023-07-08T03:58:49;98372.91;;;16.56;67.74
59106;BME280;44891;50.204;8.132;2023-07-08T04:02:51;98362.03;;;16.57;67.78
59106;BME280;44891;50.204;8.132;2023-07-08T04:06:57;98370.50;;;16.65;67.79
59106;BME280;44891;50.204;8.132;2023-07-08T04:10:59;98362.22;;;16.76;68.10
59106;BME280;44891;50.204;8.132;2023-07-08T04:15:01;98366.19;;;16.79;68.20
59106;BME280;44891;50.204;8.132;2023-07-08T04:19:02;98369.06;;;16.88;67.69
59106;BME280;44891;50.204;8.132;2023-07-08T04:23:06;98374.25;;;17.03;66.90
59106;BME280;44891;50.204;8.132;2023-07-08T04:27:08;98365.97;;;17.09;66.32
59106;BME280;44891;50.204;8.132;2023-07-08T04:31:14;98356.44;;;17.08;66.40
59106;BME280;44891;50.204;8.132;2023-07-08T04:35:15;98369.31;;;17.25;65.58
59106;BME280;44891;50.204;8.132;2023-07-08T04:39:18;98364.69;;;17.07;65.34
59106;BME280;44891;50.204;8.132;2023-07-08T04:43:21;98371.94;;;17.30;64.95
59106;BME280;44891;50.204;8.132;2023-07-08T04:47:23;98371.06;;;17.40;66.78
59106;BME280;44891;50.204;8.132;2023-07-08T04:51:24;98351.81;;;17.24;66.72
59106;BME280;44891;50.204;8.132;2023-07-08T04:55:27;98382.94;;;17.48;66.78
59106;BME280;44891;50.204;8.132;2023-07-08T04:59:29;98377.09;;;17.51;66.59
59106;BME280;44891;50.204;8.132;2023-07-08T05:03:34;98373.78;;;17.64;66.04
59106;BME280;44891;50.204;8.132;2023-07-08T05:07:37;98388.19;;;17.58;66.09
59106;BME280;44891;50.204;8.132;2023-07-08T05:11:40;98379.75;;;17.51;66.74
59106;BME280;44891;50.204;8.132;2023-07-08T05:15:42;98361.78;;;17.72;65.82
59106;BME280;44891;50.204;8.132;2023-07-08T05:19:43;98382.25;;;17.95;66.11
59106;BME280;44891;50.204;8.132;2023-07-08T05:23:46;98375.72;;;18.11;66.50
59106;BME280;44891;50.204;8.132;2023-07-08T05:27:51;98376.38;;;18.22;66.07
59106;BME280;44891;50.204;8.132;2023-07-08T05:31:52;98388.47;;;18.33;66.20
59106;BME280;44891;50.204;8.132;2023-07-08T05:35:55;98385.88;;;18.28;66.44
59106;BME280;44891;50.204;8.132;2023-07-08T05:39:56;98389.94;;;18.44;65.52
59106;BME280;44891;50.204;8.132;2023-07-08T05:44:02;98406.19;;;18.43;62.62
59106;BME280;44891;50.204;8.132;2023-07-08T05:48:04;98417.97;;;18.37;63.34
59106;BME280;44891;50.204;8.132;2023-07-08T05:52:06;98425.31;;;18.45;62.91
59106;BME280;44891;50.204;8.132;2023-07-08T05:56:11;98433.88;;;18.61;61.87
59106;BME280;44891;50.204;8.132;2023-07-08T06:00:14;98433.03;;;18.65;61.76
59106;BME280;44891;50.204;8.132;2023-07-08T06:04:16;98446.31;;;18.70;62.52
59106;BME280;44891;50.204;8.132;2023-07-08T06:08:18;98450.06;;;18.69;63.43
59106;BME280;44891;50.204;8.132;2023-07-08T06:12:20;98460.72;;;18.69;66.45
59106;BME280;44891;50.204;8.132;2023-07-08T06:16:23;98457.03;;;18.60;69.24
59106;BME280;44891;50.204;8.132;2023-07-08T06:20:25;98467.66;;;18.12;71.77
59106;BME280;44891;50.204;8.132;2023-07-08T06:24:27;98459.53;;;18.28;73.50
59106;BME280;44891;50.204;8.132;2023-07-08T06:28:29;98440.50;;;18.15;78.98
59106;BME280;44891;50.204;8.132;2023-07-08T06:32:32;98426.09;;;17.98;81.80
59106;BME280;44891;50.204;8.132;2023-07-08T06:36:34;98448.59;;;17.76;83.42
59106;BME280;44891;50.204;8.132;2023-07-08T06:40:35;98464.56;;;17.76;80.43
59106;BME280;44891;50.204;8.132;2023-07-08T06:44:37;98474.13;;;17.67;84.77
59106;BME280;44891;50.204;8.132;2023-07-08T06:48:40;98481.59;;;17.65;81.96
59106;BME280;44891;50.204;8.132;2023-07-08T06:52:42;98490.22;;;18.92;76.18
59106;BME280;44891;50.204;8.132;2023-07-08T06:56:44;98453.41;;;19.18;76.11
59106;BME280;44891;50.204;8.132;2023-07-08T07:00:46;98452.25;;;19.43;72.41
59106;BME280;44891;50.204;8.132;2023-07-08T07:04:49;98463.06;;;19.84;70.33
59106;BME280;44891;50.204;8.132;2023-07-08T07:08:51;98472.81;;;19.75;73.10
59106;BME280;44891;50.204;8.132;2023-07-08T07:12:53;98475.84;;;19.49;80.28
59106;BME280;44891;50.204;8.132;2023-07-08T07:16:55;98478.13;;;18.99;88.53
59106;BME280;44891;50.204;8.132;2023-07-08T07:20:58;98472.41;;;18.68;92.57
59106;BME280;44891;50.204;8.132;2023-07-08T07:25:00;98460.13;;;18.72;95.20
59106;BME280;44891;50.204;8.132;2023-07-08T07:29:02;98447.44;;;18.64;96.79
59106;BME280;44891;50.204;8.132;2023-07-08T07:33:04;98445.44;;;18.75;97.68
59106;BME280;44891;50.204;8.132;2023-07-08T07:37:07;98444.69;;;18.93;99.06
59106;BME280;44891;50.204;8.132;2023-07-08T07:41:12;98440.47;;;19.11;97.03
59106;BME280;44891;50.204;8.132;2023-07-08T07:45:13;98443.31;;;19.34;97.93
59106;BME280;44891;50.204;8.132;2023-07-08T07:49:15;98434.81;;;19.69;97.82
59106;BME280;44891;50.204;8.132;2023-07-08T07:53:18;98429.44;;;20.02;97.84
59106;BME280;44891;50.204;8.132;2023-07-08T07:57:21;98432.31;;;20.33;99.52
59106;BME280;44891;50.204;8.132;2023-07-08T08:01:23;98430.88;;;20.54;96.91
59106;BME280;44891;50.204;8.132;2023-07-08T08:05:24;98430.44;;;20.88;98.24
59106;BME280;44891;50.204;8.132;2023-07-08T08:09:28;98423.81;;;21.22;98.42
59106;BME280;44891;50.204;8.132;2023-07-08T08:13:29;98431.19;;;21.39;94.13
59106;BME280;44891;50.204;8.132;2023-07-08T08:17:31;98437.06;;;21.72;91.48
59106;BME280;44891;50.204;8.132;2023-07-08T08:21:33;98443.34;;;21.98;90.59
59106;BME280;44891;50.204;8.132;2023-07-08T08:25:36;98439.78;;;22.34;93.13
59106;BME280;44891;50.204;8.132;2023-07-08T08:29:38;98437.53;;;22.76;90.89
59106;BME280;44891;50.204;8.132;2023-07-08T08:33:40;98431.75;;;23.17;89.53
59106;BME280;44891;50.204;8.132;2023-07-08T08:37:42;98439.78;;;23.60;83.42
59106;BME280;44891;50.204;8.132;2023-07-08T08:41:45;98438.78;;;24.00;78.06
59106;BME280;44891;50.204;8.132;2023-07-08T08:45:48;98447.09;;;24.54;69.46
59106;BME280;44891;50.204;8.132;2023-07-08T08:49:54;98433.94;;;24.90;57.56
59106;BME280;44891;50.204;8.132;2023-07-08T08:53:58;98430.66;;;25.27;57.04
59106;BME280;44891;50.204;8.132;2023-07-08T08:58:09;98428.22;;;25.67;56.56
59106;BME280;44891;50.204;8.132;2023-07-08T09:02:21;98430.56;;;26.01;55.15
59106;BME280;44891;50.204;8.132;2023-07-08T09:06:25;98423.44;;;26.18;50.16
59106;BME280;44891;50.204;8.132;2023-07-08T09:10:29;98428.47;;;26.19;48.75
59106;BME280;44891;50.204;8.132;2023-07-08T09:14:38;98434.06;;;26.14;47.22
59106;BME280;44891;50.204;8.132;2023-07-08T09:18:41;98424.31;;;26.10;46.50
59106;BME280;44891;50.204;8.132;2023-07-08T09:22:46;98426.81;;;26.15;47.88
59106;BME280;44891;50.204;8.132;2023-07-08T09:26:49;98435.66;;;26.27;48.29
59106;BME280;44891;50.204;8.132;2023-07-08T09:30:54;98442.16;;;26.39;47.69
59106;BME280;44891;50.204;8.132;2023-07-08T09:35:01;98444.78;;;26.47;47.12
59106;BME280;44891;50.204;8.132;2023-07-08T09:39:03;98449.28;;;26.68;46.03
59106;BME280;44891;50.204;8.132;2023-07-08T09:43:23;98451.34;;;26.99;45.85
59106;BME280;44891;50.204;8.132;2023-07-08T09:47:28;98435.88;;;27.36;43.35
59106;BME280;44891;50.204;8.132;2023-07-08T09:51:33;98433.31;;;27.55;43.25
59106;BME280;44891;50.204;8.132;2023-07-08T09:55:35;98419.72;;;28.11;42.72
59106;BME280;44891;50.204;8.132;2023-07-08T09:59:38;98417.81;;;28.12;40.40
59106;BME280;44891;50.204;8.132;2023-07-08T10:03:42;98401.72;;;28.00;39.53
59106;BME280;44891;50.204;8.132;2023-07-08T10:07:44;98394.56;;;27.76;38.64
59106;BME280;44891;50.204;8.132;2023-07-08T10:11:47;98385.16;;;27.70;39.46
59106;BME280;44891;50.204;8.132;2023-07-08T10:15:52;98381.91;;;27.80;39.67
59106;BME280;44891;50.204;8.132;2023-07-08T10:19:57;98372.34;;;27.98;39.53
59106;BME280;44891;50.204;8.132;2023-07-08T10:24:00;98386.19;;;28.12;39.09
59106;BME280;44891;50.204;8.132;2023-07-08T10:28:12;98383.84;;;28.27;38.22
59106;BME280;44891;50.204;8.132;2023-07-08T10:32:23;98392.81;;;28.31;37.85
59106;BME280;44891;50.204;8.132;2023-07-08T10:36:41;98387.00;;;28.13;37.72
59106;BME280;44891;50.204;8.132;2023-07-08T10:40:47;98387.59;;;28.22;37.64
59106;BME280;44891;50.204;8.132;2023-07-08T10:44:51;98392.81;;;28.31;37.67
59106;BME280;44891;50.204;8.132;2023-07-08T10:49:00;98404.47;;;28.51;37.77
59106;BME280;44891;50.204;8.132;2023-07-08T10:53:15;98404.31;;;28.79;37.94
59106;BME280;44891;50.204;8.132;2023-07-08T10:57:24;98393.25;;;29.03;37.17
59106;BME280;44891;50.204;8.132;2023-07-08T11:01:34;98399.91;;;29.06;37.49
59106;BME280;44891;50.204;8.132;2023-07-08T11:05:40;98399.66;;;29.34;38.83
59106;BME280;44891;50.204;8.132;2023-07-08T11:09:46;98398.66;;;29.42;37.78
59106;BME280;44891;50.204;8.132;2023-07-08T11:13:51;98397.53;;;29.23;37.54
59106;BME280;44891;50.204;8.132;2023-07-08T11:17:55;98408.44;;;29.27;38.07
59106;BME280;44891;50.204;8.132;2023-07-08T11:22:00;98406.38;;;29.20;37.38
59106;BME280;44891;50.204;8.132;2023-07-08T11:26:09;98411.19;;;29.11;36.98
59106;BME280;44891;50.204;8.132;2023-07-08T11:30:13;98409.56;;;29.26;37.07
59106;BME280;44891;50.204;8.132;2023-07-08T11:34:17;98402.50;;;29.60;37.73
59106;BME280;44891;50.204;8.132;2023-07-08T11:38:20;98402.91;;;29.62;36.28
59106;BME280;44891;50.204;8.132;2023-07-08T11:42:25;98403.69;;;29.63;35.95
59106;BME280;44891;50.204;8.132;2023-07-08T11:46:31;98390.72;;;29.95;36.53
59106;BME280;44891;50.204;8.132;2023-07-08T11:50:35;98392.56;;;29.91;36.44
59106;BME280;44891;50.204;8.132;2023-07-08T11:54:38;98400.56;;;29.84;36.09
59106;BME280;44891;50.204;8.132;2023-07-08T11:58:59;98401.53;;;29.95;36.82
59106;BME280;44891;50.204;8.132;2023-07-08T12:03:18;98398.97;;;30.25;36.66
59106;BME280;44891;50.204;8.132;2023-07-08T12:07:21;98387.66;;;30.46;35.70
59106;BME280;44891;50.204;8.132;2023-07-08T12:11:31;98382.91;;;30.39;35.71
59106;BME280;44891;50.204;8.132;2023-07-08T12:15:34;98394.25;;;30.71;35.21
59106;BME280;44891;50.204;8.132;2023-07-08T12:19:36;98381.09;;;30.73;34.92
59106;BME280;44891;50.204;8.132;2023-07-08T12:23:43;98376.22;;;30.59;35.61
59106;BME280;44891;50.204;8.132;2023-07-08T12:27:45;98390.00;;;30.47;34.94
59106;BME280;44891;50.204;8.132;2023-07-08T12:31:49;98385.81;;;30.53;35.26
59106;BME280;44891;50.204;8.132;2023-07-08T12:35:51;98384.56;;;30.74;35.58
59106;BME280;44891;50.204;8.132;2023-07-08T12:39:55;98364.59;;;30.85;35.61
59106;BME280;44891;50.204;8.132;2023-07-08T12:44:00;98367.47;;;31.00;35.27
59106;BME280;44891;50.204;8.132;2023-07-08T12:48:04;98367.53;;;31.37;34.75
59106;BME280;44891;50.204;8.132;2023-07-08T12:52:17;98371.75;;;31.34;34.61
59106;BME280;44891;50.204;8.132;2023-07-08T12:56:20;98366.53;;;31.56;34.30
59106;BME280;44891;50.204;8.132;2023-07-08T13:00:24;98372.00;;;31.59;32.37
59106;BME280;44891;50.204;8.132;2023-07-08T13:04:28;98373.38;;;31.43;32.37
59106;BME280;44891;50.204;8.132;2023-07-08T13:08:30;98367.22;;;31.46;32.51
59106;BME280;44891;50.204;8.132;2023-07-08T13:12:36;98373.88;;;31.55;32.99
59106;BME280;44891;50.204;8.132;2023-07-08T13:16:40;98360.50;;;31.32;33.55
59106;BME280;44891;50.204;8.132;2023-07-08T13:20:45;98363.81;;;31.97;34.08
59106;BME280;44891;50.204;8.132;2023-07-08T13:24:48;98360.47;;;32.21;33.62
59106;BME280;44891;50.204;8.132;2023-07-08T13:28:59;98362.38;;;32.10;32.03
59106;BME280;44891;50.204;8.132;2023-07-08T13:33:01;98363.91;;;32.11;31.78
59106;BME280;44891;50.204;8.132;2023-07-08T13:37:08;98365.44;;;32.08;31.26
59106;BME280;44891;50.204;8.132;2023-07-08T13:41:13;98362.06;;;32.26;31.58
59106;BME280;44891;50.204;8.132;2023-07-08T13:45:25;98364.06;;;32.32;30.17
59106;BME280;44891;50.204;8.132;2023-07-08T13:49:29;98361.69;;;32.27;30.21
59106;BME280;44891;50.204;8.132;2023-07-08T13:53:41;98358.88;;;32.13;30.97
59106;BME280;44891;50.204;8.132;2023-07-08T13:57:44;98355.47;;;32.23;31.13
59106;BME280;44891;50.204;8.132;2023-07-08T14:01:46;98351.94;;;32.19;30.44
59106;BME280;44891;50.204;8.132;2023-07-08T14:05:47;98353.88;;;32.22;30.67
59106;BME280;44891;50.204;8.132;2023-07-08T14:09:51;98345.50;;;32.41;30.69
59106;BME280;44891;50.204;8.132;2023-07-08T14:13:53;98319.53;;;32.51;30.31
59106;BME280;44891;50.204;8.132;2023-07-08T14:17:55;98336.97;;;32.43;30.54
59106;BME280;44891;50.204;8.132;2023-07-08T14:21:57;98334.72;;;32.59;30.82
59106;BME280;44891;50.204;8.132;2023-07-08T14:26:01;98344.13;;;32.80;30.29
59106;BME280;44891;50.204;8.132;2023-07-08T14:30:03;98344.09;;;32.69;29.37
59106;BME280;44891;50.204;8.132;2023-07-08T14:34:06;98343.25;;;32.61;29.59
59106;BME280;44891;50.204;8.132;2023-07-08T14:38:09;98327.50;;;32.95;30.29
59106;BME280;44891;50.204;8.132;2023-07-08T14:42:13;98330.50;;;32.69;29.41
59106;BME280;44891;50.204;8.132;2023-07-08T14:46:17;98325.09;;;32.80;29.71
59106;BME280;44891;50.204;8.132;2023-07-08T14:50:19;98323.66;;;33.18;29.04
59106;BME280;44891;50.204;8.132;2023-07-08T14:54:21;98294.41;;;32.83;29.40
59106;BME280;44891;50.204;8.132;2023-07-08T14:58:25;98317.06;;;33.22;29.23
59106;BME280;44891;50.204;8.132;2023-07-08T15:02:27;98325.22;;;33.12;29.25
59106;BME280;44891;50.204;8.132;2023-07-08T15:06:29;98326.22;;;32.75;30.06
59106;BME280;44891;50.204;8.132;2023-07-08T15:10:31;98333.31;;;32.90;30.59
59106;BME280;44891;50.204;8.132;2023-07-08T15:14:35;98332.97;;;33.13;31.35
59106;BME280;44891;50.204;8.132;2023-07-08T15:18:37;98328.81;;;33.51;30.63
59106;BME280;44891;50.204;8.132;2023-07-08T15:22:39;98328.41;;;33.60;30.32
59106;BME280;44891;50.204;8.132;2023-07-08T15:26:41;98321.41;;;33.66;30.76
59106;BME280;44891;50.204;8.132;2023-07-08T15:30:45;98310.91;;;33.72;29.92
59106;BME280;44891;50.204;8.132;2023-07-08T15:34:47;98312.09;;;33.64;29.69
59106;BME280;44891;50.204;8.132;2023-07-08T15:38:49;98314.38;;;33.40;28.93
59106;BME280;44891;50.204;8.132;2023-07-08T15:42:53;98324.09;;;33.31;29.71
59106;BME280;44891;50.204;8.132;2023-07-08T15:46:56;98321.78;;;33.54;30.05
59106;BME280;44891;50.204;8.132;2023-07-08T15:50:58;98314.00;;;33.45;30.34
59106;BME280;44891;50.204;8.132;2023-07-08T15:55:00;98319.47;;;33.49;30.61
59106;BME280;44891;50.204;8.132;2023-07-08T15:59:02;98310.03;;;33.04;29.76
59106;BME280;44891;50.204;8.132;2023-07-08T16:03:06;98304.25;;;33.34;30.75
59106;BME280;44891;50.204;8.132;2023-07-08T16:07:08;98310.81;;;33.04;30.19
59106;BME280;44891;50.204;8.132;2023-07-08T16:11:11;98308.13;;;33.18;30.11
59106;BME280;44891;50.204;8.132;2023-07-08T16:15:15;98305.78;;;33.27;29.83
59106;BME280;44891;50.204;8.132;2023-07-08T16:19:18;98305.38;;;33.11;29.68
59106;BME280;44891;50.204;8.132;2023-07-08T16:23:20;98297.63;;;33.17;30.06
59106;BME280;44891;50.204;8.132;2023-07-08T16:27:22;98296.44;;;33.04;30.13
59106;BME280;44891;50.204;8.132;2023-07-08T16:31:25;98295.13;;;32.69;31.12
59106;BME280;44891;50.204;8.132;2023-07-08T16:35:28;98305.25;;;32.76;31.30
59106;BME280;44891;50.204;8.132;2023-07-08T16:39:30;98304.47;;;32.75;31.52
59106;BME280;44891;50.204;8.132;2023-07-08T16:43:32;98314.88;;;32.55;31.58
59106;BME280;44891;50.204;8.132;2023-07-08T16:47:34;98308.25;;;32.45;31.66
59106;BME280;44891;50.204;8.132;2023-07-08T16:51:37;98308.25;;;32.49;31.59
59106;BME280;44891;50.204;8.132;2023-07-08T16:55:40;98315.59;;;32.41;32.06
59106;BME280;44891;50.204;8.132;2023-07-08T16:59:42;98316.53;;;32.08;31.37
59106;BME280;44891;50.204;8.132;2023-07-08T17:03:43;98315.72;;;32.01;31.41
59106;BME280;44891;50.204;8.132;2023-07-08T17:07:47;98320.44;;;32.11;32.00
59106;BME280;44891;50.204;8.132;2023-07-08T17:11:48;98314.94;;;32.00;31.88
59106;BME280;44891;50.204;8.132;2023-07-08T17:15:50;98321.09;;;31.90;31.85
59106;BME280;44891;50.204;8.132;2023-07-08T17:19:52;98314.69;;;31.72;32.09
59106;BME280;44891;50.204;8.132;2023-07-08T17:23:55;98317.75;;;31.66;33.18
59106;BME280;44891;50.204;8.132;2023-07-08T17:27:57;98315.38;;;31.61;33.27
59106;BME280;44891;50.204;8.132;2023-07-08T17:31:59;98318.69;;;31.40;34.12
59106;BME280;44891;50.204;8.132;2023-07-08T17:36:07;98325.91;;;31.26;34.94
59106;BME280;44891;50.204;8.132;2023-07-08T17:40:17;98324.63;;;31.16;36.09
59106;BME280;44891;50.204;8.132;2023-07-08T17:44:20;98336.44;;;30.97;36.91
59106;BME280;44891;50.204;8.132;2023-07-08T17:48:22;98333.53;;;30.53;37.42
59106;BME280;44891;50.204;8.132;2023-07-08T17:52:25;98340.25;;;30.32;38.26
59106;BME280;44891;50.204;8.132;2023-07-08T17:56:30;98341.38;;;30.05;39.09
59106;BME280;44891;50.204;8.132;2023-07-08T18:00:32;98336.75;;;29.83;39.34
59106;BME280;44891;50.204;8.132;2023-07-08T18:04:35;98346.03;;;29.59;38.93
59106;BME280;44891;50.204;8.132;2023-07-08T18:08:36;98342.56;;;29.39;39.49
59106;BME280;44891;50.204;8.132;2023-07-08T18:12:40;98342.78;;;29.11;39.36
59106;BME280;44891;50.204;8.132;2023-07-08T18:16:42;98347.50;;;28.94;39.67
59106;BME280;44891;50.204;8.132;2023-07-08T18:20:45;98347.41;;;28.91;40.27
59106;BME280;44891;50.204;8.132;2023-07-08T18:24:50;98349.84;;;28.96;39.85
59106;BME280;44891;50.204;8.132;2023-07-08T18:28:53;98348.66;;;28.93;40.61
59106;BME280;44891;50.204;8.132;2023-07-08T18:32:55;98354.84;;;28.94;40.66
59106;BME280;44891;50.204;8.132;2023-07-08T18:36:57;98356.50;;;28.83;40.61
59106;BME280;44891;50.204;8.132;2023-07-08T18:41:01;98349.13;;;28.80;40.60
59106;BME280;44891;50.204;8.132;2023-07-08T18:45:05;98350.59;;;28.77;41.18
59106;BME280;44891;50.204;8.132;2023-07-08T18:49:07;98360.44;;;28.66;41.19
59106;BME280;44891;50.204;8.132;2023-07-08T18:53:11;98364.88;;;28.58;42.70
59106;BME280;44891;50.204;8.132;2023-07-08T18:57:13;98369.97;;;28.28;42.55
59106;BME280;44891;50.204;8.132;2023-07-08T19:01:18;98379.06;;;28.04;43.94
59106;BME280;44891;50.204;8.132;2023-07-08T19:05:22;98385.44;;;27.96;44.23
59106;BME280;44891;50.204;8.132;2023-07-08T19:09:24;98379.16;;;27.76;44.14
59106;BME280;44891;50.204;8.132;2023-07-08T19:13:26;98394.16;;;27.61;43.39
59106;BME280;44891;50.204;8.132;2023-07-08T19:17:29;98387.53;;;27.43;42.73
59106;BME280;44891;50.204;8.132;2023-07-08T19:21:30;98404.19;;;27.33;42.26
59106;BME280;44891;50.204;8.132;2023-07-08T19:25:33;98448.63;;;27.23;42.91
59106;BME280;44891;50.204;8.132;2023-07-08T19:29:35;98446.75;;;27.12;43.07
59106;BME280;44891;50.204;8.132;2023-07-08T19:33:38;98450.44;;;27.07;43.58
59106;BME280;44891;50.204;8.132;2023-07-08T19:37:40;98437.63;;;27.04;44.19
59106;BME280;44891;50.204;8.132;2023-07-08T19:41:42;98456.44;;;26.88;44.83
59106;BME280;44891;50.204;8.132;2023-07-08T19:45:45;98464.06;;;26.74;44.67
59106;BME280;44891;50.204;8.132;2023-07-08T19:49:48;98470.16;;;26.59;44.47
59106;BME280;44891;50.204;8.132;2023-07-08T19:53:50;98463.41;;;26.52;44.08
59106;BME280;44891;50.204;8.132;2023-07-08T19:57:53;98477.78;;;26.44;44.43
59106;BME280;44891;50.204;8.132;2023-07-08T20:01:56;98479.00;;;26.35;45.31
59106;BME280;44891;50.204;8.132;2023-07-08T20:06:02;98478.72;;;26.27;45.35
59106;BME280;44891;50.204;8.132;2023-07-08T20:10:11;98483.66;;;26.13;46.15
59106;BME280;44891;50.204;8.132;2023-07-08T20:14:14;98484.75;;;26.00;45.71
59106;BME280;44891;50.204;8.132;2023-07-08T20:18:17;98498.06;;;25.84;46.93
59106;BME280;44891;50.204;8.132;2023-07-08T20:22:22;98506.13;;;25.63;47.67
59106;BME280;44891;50.204;8.132;2023-07-08T20:26:25;98509.81;;;25.59;47.25
59106;BME280;44891;50.204;8.132;2023-07-08T20:30:27;98520.50;;;25.46;48.03
59106;BME280;44891;50.204;8.132;2023-07-08T20:34:29;98514.06;;;25.39;47.75
59106;BME280;44891;50.204;8.132;2023-07-08T20:38:33;98516.09;;;25.21;48.75
59106;BME280;44891;50.204;8.132;2023-07-08T20:42:34;98516.50;;;25.11;49.53
59106;BME280;44891;50.204;8.132;2023-07-08T20:46:36;98517.53;;;24.89;50.02
59106;BME280;44891;50.204;8.132;2023-07-08T20:50:38;98530.44;;;24.66;51.03
59106;BME280;44891;50.204;8.132;2023-07-08T20:54:41;98533.81;;;24.54;51.49
59106;BME280;44891;50.204;8.132;2023-07-08T20:58:43;98519.56;;;24.07;52.45
59106;BME280;44891;50.204;8.132;2023-07-08T21:02:45;98514.19;;;24.07;52.24
59106;BME280;44891;50.204;8.132;2023-07-08T21:06:47;98519.75;;;23.93;52.17
59106;BME280;44891;50.204;8.132;2023-07-08T21:10:51;98522.44;;;23.84;51.95
59106;BME280;44891;50.204;8.132;2023-07-08T21:14:53;98518.78;;;23.89;53.32
59106;BME280;44891;50.204;8.132;2023-07-08T21:18:55;98517.09;;;23.84;54.00
59106;BME280;44891;50.204;8.132;2023-07-08T21:22:57;98521.19;;;23.65;54.54
59106;BME280;44891;50.204;8.132;2023-07-08T21:27:00;98516.59;;;23.39;55.06
59106;BME280;44891;50.204;8.132;2023-07-08T21:31:02;98511.06;;;23.18;55.43